Time;durP1;ratioP1;P1;durP2;ratioP2;P2;SDS_P1;SDS_P2;PMS_P1;PMS_P2;Temp;Humidity;BMP_temperature;BMP_pressure;BME280_temperature;BME280_humidity;BME280_pressure;Samples;Min_cycle;Max_cycle;Signal;HPM_P1;HPM_P2
2022/10/07 04:22:48;;;;;;;6.00;2.17;;;;;;;11.76;99.04;101206.75;5091898;28;20389;-61
2022/10/07 04:25:33;;;;;;;5.05;2.15;;;;;;;11.72;98.89;101199.19;5092837;28;20492;-58
2022/10/07 04:28:04;;;;;;;8.00;2.63;;;;;;;11.74;99.38;101205.25;5090600;28;20493;-61
2022/10/07 04:30:33;;;;;;;6.07;2.15;;;;;;;11.69;98.10;101206.53;5089371;28;20033;-60
2022/10/07 04:33:03;;;;;;;4.03;1.45;;;;;;;11.74;98.28;101199.91;5079160;28;20056;-61
2022/10/07 04:35:29;;;;;;;3.78;1.88;;;;;;;11.74;96.95;101202.56;5069388;28;20043;-60
2022/10/07 04:37:56;;;;;;;6.60;2.70;;;;;;;11.75;97.46;101198.91;5069353;28;20036;-61
2022/10/07 04:40:24;;;;;;;5.70;2.30;;;;;;;11.77;97.61;101191.56;5069527;28;20029;-62
2022/10/07 04:45:35;;;;;;;4.50;1.75;;;;;;;11.74;97.52;101200.75;5069225;28;20037;-60
2022/10/07 04:48:07;;;;;;;3.78;1.95;;;;;;;11.74;97.79;101191.91;5069456;28;20123;-61
2022/10/07 04:50:37;;;;;;;4.63;2.05;;;;;;;11.74;98.13;101190.06;5068599;28;20516;-61
2022/10/07 04:53:05;;;;;;;5.43;1.73;;;;;;;11.75;97.71;101188.22;5068896;28;20033;-61
2022/10/07 04:55:36;;;;;;;4.10;1.83;;;;;;;11.73;97.39;101183.03;5069501;28;20033;-61
2022/10/07 04:58:02;;;;;;;4.97;1.90;;;;;;;11.79;96.92;101194.91;5070302;28;20476;-61
2022/10/07 05:00:27;;;;;;;5.20;2.00;;;;;;;11.78;96.79;101187.91;5069037;28;20090;-61
2022/10/07 05:02:53;;;;;;;4.00;2.35;;;;;;;11.79;96.59;101187.72;5069166;28;20036;-61
2022/10/07 05:05:20;;;;;;;3.40;1.50;;;;;;;11.76;96.68;101185.41;5069123;28;20056;-61
2022/10/07 05:07:50;;;;;;;3.75;1.27;;;;;;;11.68;96.00;101175.50;5070862;28;20045;-61
2022/10/07 05:10:17;;;;;;;9.20;1.83;;;;;;;11.69;95.44;101174.50;5068403;28;20033;-61
2022/10/07 05:12:42;;;;;;;4.85;1.60;;;;;;;11.69;95.88;101176.34;5069348;28;20040;-61
2022/10/07 05:15:08;;;;;;;2.65;1.40;;;;;;;11.58;96.56;101177.44;5070449;28;20037;-60
2022/10/07 05:17:34;;;;;;;5.32;2.00;;;;;;;11.58;95.47;101181.94;5069230;28;20462;-61
2022/10/07 05:20:00;;;;;;;4.10;1.83;;;;;;;11.65;95.75;101178.47;5070863;28;20044;-61
2022/10/07 05:22:26;;;;;;;2.97;1.38;;;;;;;11.65;95.58;101175.81;5070492;28;20021;-60
2022/10/07 05:24:51;;;;;;;3.15;1.42;;;;;;;11.67;94.38;101179.19;5071032;28;20124;-61
2022/10/07 05:27:17;;;;;;;7.57;1.70;;;;;;;11.70;94.14;101175.34;5069163;28;20555;-60
2022/10/07 05:29:43;;;;;;;2.65;1.60;;;;;;;11.72;94.15;101175.19;5068842;28;20033;-61
2022/10/07 05:32:08;;;;;;;3.30;1.65;;;;;;;11.72;94.06;101177.84;5067742;28;20033;-61
2022/10/07 05:34:34;;;;;;;6.22;1.70;;;;;;;11.71;94.03;101173.50;5056962;28;20037;-60
2022/10/07 05:37:00;;;;;;;3.20;1.55;;;;;;;11.69;94.78;101177.19;5055557;28;20123;-61
2022/10/07 05:39:26;;;;;;;2.75;1.40;;;;;;;11.65;94.37;101167.81;5055270;28;20033;-61
2022/10/07 05:41:57;;;;;;;2.75;1.23;;;;;;;11.64;94.05;101178.66;5055297;28;20025;-61
2022/10/07 05:44:31;;;;;;;3.92;1.40;;;;;;;11.63;94.09;101172.47;5055706;28;20037;-61
2022/10/07 05:46:58;;;;;;;2.78;1.70;;;;;;;11.62;93.89;101181.47;5055414;28;20497;-61
2022/10/07 05:49:24;;;;;;;4.40;1.95;;;;;;;11.58;94.35;101169.44;5055785;28;20107;-60
2022/10/07 05:51:50;;;;;;;7.30;1.50;;;;;;;11.54;95.12;101176.09;5056445;28;20402;-65
2022/10/07 05:54:16;;;;;;;1.63;1.30;;;;;;;11.57;94.34;101169.59;5055243;28;20032;-61
2022/10/07 05:56:43;;;;;;;4.78;1.63;;;;;;;11.60;94.75;101172.78;5054596;28;20116;-62
2022/10/07 05:59:09;;;;;;;2.47;1.55;;;;;;;11.58;94.67;101166.75;5055085;28;20132;-64
2022/10/07 06:01:36;;;;;;;3.75;1.80;;;;;;;11.58;95.08;101163.25;5053749;28;20060;-65
2022/10/07 06:04:07;;;;;;;2.63;1.52;;;;;;;11.49;95.96;101159.72;5054908;28;20490;-64
2022/10/07 06:06:35;;;;;;;2.10;1.55;;;;;;;11.50;96.11;101163.22;5054571;28;20036;-65
2022/10/07 06:14:35;;;;;;;3.75;1.95;;;;;;;11.53;96.21;101161.06;5058680;28;20539;-65
2022/10/07 06:17:01;;;;;;;4.07;1.65;;;;;;;11.51;96.36;101160.38;5055626;28;20033;-65
2022/10/07 06:19:26;;;;;;;3.95;1.55;;;;;;;11.56;96.45;101162.59;5052923;28;20563;-55
2022/10/07 06:21:55;;;;;;;4.63;1.60;;;;;;;11.53;97.30;101163.72;5071519;28;20101;-60
2022/10/07 06:24:21;;;;;;;3.13;1.80;;;;;;;11.48;97.63;101157.22;5071810;28;20060;-60
2022/10/07 06:26:47;;;;;;;2.67;1.95;;;;;;;11.51;97.99;101159.56;5071955;28;20032;-58
2022/10/07 06:29:14;;;;;;;3.75;2.05;;;;;;;11.43;98.30;101146.16;5071920;28;20447;-60
2022/10/07 06:31:39;;;;;;;6.88;2.08;;;;;;;11.50;98.60;101156.06;5071880;28;20029;-60
2022/10/07 06:34:05;;;;;;;2.55;1.75;;;;;;;11.44;99.17;101171.84;5073388;28;20090;-60
2022/10/07 06:36:31;;;;;;;3.47;1.90;;;;;;;11.46;98.99;101173.34;5071806;28;20036;-60
2022/10/07 06:38:58;;;;;;;4.85;2.10;;;;;;;11.53;98.49;101168.22;5071835;28;20040;-61
2022/10/07 06:41:29;;;;;;;6.57;2.13;;;;;;;11.38;99.63;101173.31;5071395;28;20033;-60
2022/10/07 06:44:17;;;;;;;8.85;2.22;;;;;;;11.48;99.95;101175.88;5070705;28;20049;-60
2022/10/07 06:46:43;;;;;;;5.82;2.38;;;;;;;11.56;100.00;101166.09;5071469;28;20029;-60
2022/10/07 06:49:09;;;;;;;6.00;2.25;;;;;;;11.60;99.34;101170.09;5072846;28;20470;-60
2022/10/07 06:51:34;;;;;;;4.40;2.22;;;;;;;11.62;98.29;101164.63;5070803;28;20040;-60
2022/10/07 06:54:00;;;;;;;5.78;2.28;;;;;;;11.56;99.30;101168.75;5071459;28;20060;-60
2022/10/07 06:56:26;;;;;;;6.40;2.65;;;;;;;11.62;98.87;101173.47;5071370;28;20077;-60
2022/10/07 06:58:51;;;;;;;5.40;2.55;;;;;;;11.65;98.64;101170.47;5071243;28;20420;-60
2022/10/07 07:01:25;;;;;;;4.38;2.38;;;;;;;11.66;98.18;101172.16;5070880;28;20024;-60
2022/10/07 07:03:52;;;;;;;3.17;2.20;;;;;;;11.65;98.86;101180.31;5072395;28;20093;-60
2022/10/07 07:06:19;;;;;;;11.50;2.20;;;;;;;11.65;98.65;101181.16;5070997;28;20020;-59
2022/10/07 07:08:46;;;;;;;5.25;1.70;;;;;;;11.60;99.29;101182.63;5071138;28;20459;-60
2022/10/07 07:14:11;;;;;;;11.88;2.75;;;;;;;11.63;98.71;101182.31;5072468;28;20060;-64
2022/10/07 07:16:40;;;;;;;5.43;2.60;;;;;;;11.61;97.74;101184.31;5072595;28;20047;-66
2022/10/07 07:19:07;;;;;;;7.00;2.53;;;;;;;11.54;97.92;101183.25;5071795;28;20631;-66
2022/10/07 07:21:37;;;;;;;10.43;2.83;;;;;;;11.62;97.71;101180.66;5071917;28;20032;-65
2022/10/07 07:24:04;;;;;;;8.68;3.30;;;;;;;11.69;97.12;101181.69;5071159;28;20033;-65
2022/10/07 07:26:31;;;;;;;4.35;2.13;;;;;;;11.64;96.99;101176.81;5071449;28;20041;-65
2022/10/07 07:29:03;;;;;;;11.15;2.47;;;;;;;11.72;96.48;101183.19;5071202;28;20062;-65
2022/10/07 07:31:36;;;;;;;4.25;2.20;;;;;;;11.78;96.21;101185.22;5071102;28;20456;-65
2022/10/07 07:34:06;;;;;;;7.05;2.17;;;;;;;11.81;95.97;101187.63;5071284;28;20047;-66
2022/10/07 07:36:34;;;;;;;4.78;2.58;;;;;;;11.82;96.13;101187.47;5070621;28;20124;-66
2022/10/07 07:39:03;;;;;;;3.58;2.45;;;;;;;11.90;95.40;101187.50;5070844;28;20035;-65
2022/10/07 07:41:32;;;;;;;5.65;2.15;;;;;;;11.94;94.95;101182.69;5067573;28;20024;-64
2022/10/07 07:44:01;;;;;;;6.88;2.58;;;;;;;11.95;95.82;101189.72;5068147;28;20032;-64
2022/10/07 07:46:32;;;;;;;9.32;2.28;;;;;;;12.03;95.65;101183.56;5070710;28;20472;-63
2022/10/07 07:48:57;;;;;;;4.68;2.55;;;;;;;12.03;96.33;101189.72;5070727;28;20063;-64
2022/10/07 07:51:24;;;;;;;2.92;1.92;;;;;;;12.10;96.46;101188.09;5068696;28;20071;-65
2022/10/07 07:53:49;;;;;;;5.38;2.20;;;;;;;12.12;96.68;101183.41;5066614;28;20373;-65
2022/10/07 07:56:17;;;;;;;6.82;2.30;;;;;;;12.09;95.87;101173.06;5070028;28;20089;-65
2022/10/07 07:58:42;;;;;;;4.80;2.88;;;;;;;12.15;95.88;101177.78;5071761;28;20040;-66
2022/10/07 08:01:12;;;;;;;7.85;3.65;;;;;;;12.22;95.45;101186.81;5069640;28;20044;-66
2022/10/07 08:03:42;;;;;;;8.32;4.22;;;;;;;12.18;96.29;101177.44;5070067;28;20036;-66
2022/10/07 08:06:09;;;;;;;6.10;3.47;;;;;;;12.27;96.08;101180.16;5070575;28;20409;-66
2022/10/07 08:08:35;;;;;;;8.25;3.70;;;;;;;12.23;98.50;101174.28;5070699;28;20031;-64
2022/10/07 08:11:12;;;;;;;7.20;2.92;;;;;;;12.26;98.64;101179.31;5071237;28;20135;-65
2022/10/07 08:13:40;;;;;;;7.80;2.88;;;;;;;12.38;98.18;101177.16;5070178;28;20506;-65
2022/10/07 08:16:11;;;;;;;6.32;2.63;;;;;;;12.41;97.81;101180.38;5070623;28;20120;-66
2022/10/07 08:18:39;;;;;;;7.57;3.13;;;;;;;12.33;96.56;101167.00;5070692;28;20043;-66
2022/10/07 08:21:07;;;;;;;6.03;2.45;;;;;;;12.33;95.09;101168.84;5053191;28;20115;-66
2022/10/07 08:23:34;;;;;;;6.75;3.05;;;;;;;12.47;95.15;101176.22;5070405;28;20044;-66
2022/10/07 08:26:00;;;;;;;8.80;2.35;;;;;;;12.56;96.15;101177.91;5071141;28;20036;-65
2022/10/07 08:28:27;;;;;;;7.03;2.88;;;;;;;12.58;94.03;101178.56;5070702;28;20447;-65
2022/10/07 08:31:00;;;;;;;8.25;3.03;;;;;;;12.54;92.57;101171.06;5070201;28;20470;-65
2022/10/07 08:33:25;;;;;;;8.05;2.75;;;;;;;12.51;92.30;101172.19;5072283;28;20039;-65
2022/10/07 08:35:56;;;;;;;8.27;2.72;;;;;;;12.56;94.35;101159.19;5072344;28;20033;-66
2022/10/07 08:38:22;;;;;;;5.88;2.65;;;;;;;12.57;95.10;101160.03;5073035;28;20497;-65
2022/10/07 08:40:49;;;;;;;6.88;3.15;;;;;;;12.49;93.01;101158.19;5072682;28;20028;-64
2022/10/07 08:43:18;;;;;;;7.30;3.17;;;;;;;12.54;93.59;101161.19;5073668;28;20028;-66
2022/10/07 08:45:45;;;;;;;5.38;2.75;;;;;;;12.71;92.50;101164.72;5073708;28;20433;-64
2022/10/07 08:48:19;;;;;;;4.28;2.70;;;;;;;12.83;94.38;101138.50;5072273;28;20102;-65
2022/10/07 08:50:54;;;;;;;6.22;2.83;;;;;;;13.07;94.06;101151.88;5069825;28;20111;-65
2022/10/07 08:53:35;;;;;;;6.18;2.58;;;;;;;13.14;92.07;101144.88;5071749;28;20111;-65
2022/10/07 08:56:12;;;;;;;7.07;2.30;;;;;;;13.25;90.26;101147.22;5071796;28;20123;-65
2022/10/07 08:58:56;;;;;;;6.45;2.60;;;;;;;13.34;90.92;101145.38;5071461;28;20062;-65
2022/10/07 09:01:34;;;;;;;3.75;2.33;;;;;;;13.57;91.08;101138.31;5070929;28;20424;-65
2022/10/07 09:04:28;;;;;;;7.50;2.95;;;;;;;13.76;90.45;101134.41;5071482;28;20032;-65
2022/10/07 09:07:01;;;;;;;7.68;2.92;;;;;;;13.74;87.37;101130.22;5071627;28;20120;-66
2022/10/07 09:09:33;;;;;;;7.80;2.53;;;;;;;13.89;87.70;101133.00;5075386;28;20397;-65
2022/10/07 09:12:01;;;;;;;8.45;2.30;;;;;;;14.10;87.21;101131.44;5075134;28;20045;-66
2022/10/07 09:14:32;;;;;;;4.53;2.53;;;;;;;14.15;87.37;101128.22;5075125;28;20454;-66
2022/10/07 09:17:18;;;;;;;5.70;2.92;;;;;;;14.30;86.91;101131.81;5073737;28;20520;-66
2022/10/07 09:19:56;;;;;;;8.68;2.78;;;;;;;14.37;86.29;101123.91;5074446;28;20139;-66
2022/10/07 09:22:36;;;;;;;8.18;2.97;;;;;;;14.47;87.38;101123.69;5074217;28;20029;-66
2022/10/07 09:25:11;;;;;;;8.85;2.65;;;;;;;14.59;84.62;101122.28;5075181;28;20043;-66
2022/10/07 09:27:37;;;;;;;7.65;3.28;;;;;;;14.66;84.26;101117.88;5074729;28;20024;-66
2022/10/07 09:30:03;;;;;;;8.05;2.70;;;;;;;14.76;83.36;101115.81;5074015;28;20349;-66
2022/10/07 09:32:29;;;;;;;4.22;2.50;;;;;;;14.81;82.46;101112.59;5074192;28;20094;-66
2022/10/07 09:34:54;;;;;;;6.65;2.92;;;;;;;14.93;85.18;101113.81;5074290;28;20040;-67
2022/10/07 09:37:26;;;;;;;5.00;2.47;;;;;;;15.18;84.52;101111.75;5074677;28;20040;-66
2022/10/07 09:40:15;;;;;;;8.13;2.80;;;;;;;15.42;84.63;101102.63;5074157;28;20036;-67
2022/10/07 09:42:48;;;;;;;5.53;2.92;;;;;;;15.61;82.06;101101.25;5074257;28;20040;-67
2022/10/07 09:45:24;;;;;;;4.63;2.85;;;;;;;15.88;80.52;101100.59;5074399;28;20146;-65
2022/10/07 09:47:52;;;;;;;7.00;3.00;;;;;;;16.13;80.57;101101.13;5074349;28;20081;-53
2022/10/07 09:50:41;;;;;;;5.15;2.60;;;;;;;16.46;78.03;101096.09;5073630;28;20027;-53
2022/10/07 09:53:18;;;;;;;5.78;2.67;;;;;;;16.74;74.28;101089.97;5072730;28;20033;-67
2022/10/07 09:55:44;;;;;;;5.72;2.85;;;;;;;17.00;74.44;101082.13;5074363;28;20039;-66
2022/10/07 09:58:17;;;;;;;6.13;2.30;;;;;;;17.28;73.63;101084.84;5074112;28;20183;-67
2022/10/07 10:00:45;;;;;;;5.78;2.67;;;;;;;17.43;70.62;101081.19;5073911;28;20044;-66
2022/10/07 10:03:11;;;;;;;5.50;2.53;;;;;;;17.67;73.24;101082.56;5071605;28;20059;-66
2022/10/07 10:05:40;;;;;;;7.55;2.70;;;;;;;18.26;68.45;101087.41;5073343;28;20052;-67
2022/10/07 10:08:17;;;;;;;3.58;2.65;;;;;;;18.47;67.55;101081.84;5073970;28;20044;-66
2022/10/07 10:10:51;;;;;;;4.00;2.40;;;;;;;19.19;64.66;101081.06;5073732;28;20047;-67
2022/10/07 10:13:37;;;;;;;4.20;2.53;;;;;;;18.97;63.65;101064.28;5074285;28;20611;-67
2022/10/07 10:16:05;;;;;;;4.15;2.60;;;;;;;18.87;64.59;101063.84;5073426;28;20113;-66
2022/10/07 10:18:51;;;;;;;6.38;4.22;;;;;;;19.76;63.08;101066.00;5073330;28;20036;-67
2022/10/07 10:21:19;;;;;;;4.22;2.65;;;;;;;20.58;59.38;101056.19;5073004;28;20056;-66
2022/10/07 10:23:51;;;;;;;3.67;2.13;;;;;;;20.61;59.79;101057.66;5072886;28;20032;-67
2022/10/07 10:26:35;;;;;;;7.65;2.65;;;;;;;20.81;59.62;101046.66;5072096;28;20492;-67
2022/10/07 10:29:08;;;;;;;2.58;1.67;;;;;;;21.57;56.41;101048.22;5073016;28;20037;-65
2022/10/07 10:31:52;;;;;;;4.30;2.10;;;;;;;21.55;55.25;101044.91;5071883;28;20032;-67
2022/10/07 10:34:34;;;;;;;4.10;2.45;;;;;;;21.44;53.81;101037.50;5073620;28;20064;-64
2022/10/07 10:37:14;;;;;;;2.95;1.90;;;;;;;21.63;54.65;101029.16;5072800;28;20127;-64
2022/10/07 10:39:57;;;;;;;3.40;2.00;;;;;;;21.56;57.58;101033.00;5072797;28;20040;-62
2022/10/07 10:42:43;;;;;;;3.72;2.60;;;;;;;21.68;53.59;101026.59;5072657;28;20025;-64
2022/10/07 10:45:12;;;;;;;4.65;2.55;;;;;;;22.07;52.55;101032.56;5072634;28;20041;-61
2022/10/07 10:47:43;;;;;;;6.63;2.15;;;;;;;21.96;56.08;101025.19;5072812;28;20047;-62
2022/10/07 10:50:55;;;;;;;5.72;2.15;;;;;;;21.54;53.75;101022.41;5072488;28;20536;-65
2022/10/07 10:53:45;;;;;;;6.25;2.60;;;;;;;22.52;52.75;101017.72;5062602;28;20052;-64
2022/10/07 10:56:26;;;;;;;3.38;1.85;;;;;;;23.18;50.78;101017.44;5072451;28;20040;-64
2022/10/07 10:59:20;;;;;;;4.38;2.50;;;;;;;22.66;49.69;101002.88;5072551;28;20033;-64
2022/10/07 11:01:59;;;;;;;5.45;2.47;;;;;;;23.38;48.45;101002.63;5072045;28;20039;-64
2022/10/07 11:04:44;;;;;;;5.68;2.17;;;;;;;23.88;47.00;100999.31;5072407;28;20036;-65
2022/10/07 11:07:30;;;;;;;6.22;2.53;;;;;;;23.63;46.90;100997.75;5072303;28;20119;-63
2022/10/07 11:10:04;;;;;;;3.40;2.17;;;;;;;24.05;46.75;100995.53;5072180;28;20063;-64
2022/10/07 11:12:36;;;;;;;6.40;2.22;;;;;;;23.23;49.29;100987.66;5072083;28;20045;-62
2022/10/07 11:15:17;;;;;;;3.17;2.22;;;;;;;23.08;49.39;100983.75;5072227;28;20040;-65
2022/10/07 11:17:48;;;;;;;3.22;2.03;;;;;;;24.29;46.40;100985.38;5072123;28;20066;-66
2022/10/07 11:20:31;;;;;;;4.72;2.40;;;;;;;24.42;46.27;100983.44;5071770;28;20397;-65
2022/10/07 11:23:11;;;;;;;3.92;2.38;;;;;;;24.55;45.13;100975.75;5072149;28;20413;-65
2022/10/07 11:25:49;;;;;;;4.45;2.30;;;;;;;24.88;45.12;100969.44;5072051;28;20051;-65
2022/10/07 11:28:29;;;;;;;3.47;2.05;;;;;;;23.97;46.81;100959.75;5071979;28;20146;-64
2022/10/07 11:31:06;;;;;;;4.07;2.40;;;;;;;25.02;45.69;100963.63;5071028;28;20399;-64
2022/10/07 11:33:50;;;;;;;5.57;1.98;;;;;;;26.15;43.17;100964.72;5071897;28;20085;-65
2022/10/07 11:36:21;;;;;;;4.68;2.13;;;;;;;25.82;44.89;100956.72;5071846;28;20078;-65
2022/10/07 11:38:49;;;;;;;5.85;2.17;;;;;;;25.94;43.69;100952.78;5071770;28;20033;-65
2022/10/07 11:41:25;;;;;;;3.03;2.10;;;;;;;24.57;47.23;100934.66;5053566;28;20064;-64
2022/10/07 11:43:55;;;;;;;6.23;2.77;;;;;;;23.29;48.32;100931.50;5071723;28;20032;-62
2022/10/07 11:46:32;;;;;;;4.45;2.20;;;;;;;23.48;48.67;100938.44;5071646;28;20036;-62
2022/10/07 11:49:11;;;;;;;4.32;2.03;;;;;;;23.58;48.56;100926.91;5071711;28;20040;-64
2022/10/07 11:51:45;;;;;;;4.28;1.90;;;;;;;23.03;50.40;100924.72;5071184;28;20059;-64
2022/10/07 11:54:14;;;;;;;3.75;2.17;;;;;;;23.08;50.78;100924.81;5071742;28;20055;-65
2022/10/07 11:56:51;;;;;;;4.45;2.30;;;;;;;23.27;49.61;100922.75;5071543;28;20029;-64
2022/10/07 11:59:47;;;;;;;6.63;2.38;;;;;;;23.67;48.85;100921.94;5071432;28;20040;-64
2022/10/07 12:02:28;;;;;;;3.42;2.35;;;;;;;24.23;46.73;100910.13;5070407;28;20693;-64
2022/10/07 12:04:56;;;;;;;4.32;2.15;;;;;;;24.00;47.52;100905.69;5071581;28;20041;-66
2022/10/07 12:07:30;;;;;;;2.20;1.85;;;;;;;24.70;45.85;100895.34;5071416;28;20504;-64
2022/10/07 12:09:58;;;;;;;3.75;2.15;;;;;;;24.93;45.49;100892.41;5071324;28;20040;-63
2022/10/07 12:12:44;;;;;;;4.85;2.35;;;;;;;25.64;43.98;100878.78;5071038;28;20029;-64
2022/10/07 12:15:25;;;;;;;5.70;2.30;;;;;;;25.70;44.01;100884.03;5071406;28;20604;-63
2022/10/07 12:17:55;;;;;;;3.75;1.80;;;;;;;25.11;45.06;100870.31;5071424;28;20055;-65
2022/10/07 12:20:36;;;;;;;5.22;2.45;;;;;;;25.56;43.93;100855.53;5070957;28;20062;-66
2022/10/07 12:23:24;;;;;;;5.15;2.17;;;;;;;26.35;42.39;100864.94;5071238;28;20033;-64
2022/10/07 12:26:30;;;;;;;3.50;2.30;;;;;;;25.35;44.06;100862.66;5063703;28;20047;-66
2022/10/07 12:28:56;;;;;;;4.35;2.13;;;;;;;25.48;43.98;100857.88;5071201;28;20068;-65
2022/10/07 12:31:22;;;;;;;10.60;2.35;;;;;;;26.35;43.49;100845.84;5070929;28;20125;-64
2022/10/07 12:33:57;;;;;;;2.53;1.75;;;;;;;26.45;44.02;100845.91;5071264;28;20041;-65
2022/10/07 12:36:25;;;;;;;2.78;1.60;;;;;;;26.40;42.90;100845.88;5071106;28;20486;-66
2022/10/07 12:39:00;;;;;;;3.17;2.00;;;;;;;27.23;41.88;100843.28;5069879;28;20036;-65
2022/10/07 12:41:27;;;;;;;5.22;2.25;;;;;;;27.64;40.15;100843.34;5070918;28;20037;-66
2022/10/07 12:44:05;;;;;;;4.32;2.33;;;;;;;26.98;41.55;100836.59;5073711;28;20032;-66
2022/10/07 12:46:36;;;;;;;3.67;2.03;;;;;;;27.40;42.32;100834.84;5076647;28;20033;-67
2022/10/07 12:49:19;;;;;;;4.45;2.15;;;;;;;27.26;42.77;100829.06;5076698;28;20037;-67
2022/10/07 12:51:45;;;;;;;5.30;2.47;;;;;;;27.12;41.68;100827.94;5076468;28;20048;-65
2022/10/07 12:54:31;;;;;;;4.55;3.08;;;;;;;26.66;41.71;100830.44;5075622;28;20051;-65
2022/10/07 12:56:57;;;;;;;3.55;2.03;;;;;;;26.63;43.33;100820.88;5074928;28;20056;-65
2022/10/07 12:59:47;;;;;;;3.05;2.15;;;;;;;26.31;43.02;100811.94;5075009;28;20551;-66
2022/10/07 13:02:49;;;;;;;3.72;2.40;;;;;;;26.00;44.33;100814.47;5074618;28;20037;-65
2022/10/07 13:05:52;;;;;;;2.90;2.15;;;;;;;25.08;46.41;100808.13;5074995;28;20389;-66
2022/10/07 13:08:20;;;;;;;4.13;2.13;;;;;;;25.67;46.30;100807.34;5074716;28;20028;-66
2022/10/07 13:10:59;;;;;;;4.63;1.90;;;;;;;26.14;46.04;100793.81;5074160;28;20046;-66
2022/10/07 13:13:50;;;;;;;7.05;2.35;;;;;;;25.78;46.19;100789.19;5074629;28;20028;-64
2022/10/07 13:16:20;;;;;;;3.08;1.77;;;;;;;25.65;47.27;100791.25;5074643;28;20103;-66
2022/10/07 13:18:55;;;;;;;2.28;1.75;;;;;;;25.20;45.76;100786.19;5074589;28;20150;-67
2022/10/07 13:21:29;;;;;;;2.95;2.10;;;;;;;24.44;48.17;100775.19;5073940;28;20086;-66
2022/10/07 13:23:55;;;;;;;2.47;1.95;;;;;;;24.87;48.55;100773.53;5074361;28;20500;-66
2022/10/07 13:26:22;;;;;;;4.75;2.20;;;;;;;24.34;51.03;100773.16;5074280;28;20036;-66
2022/10/07 13:28:51;;;;;;;4.43;2.03;;;;;;;23.92;51.90;100764.59;5074502;28;20041;-65
2022/10/07 13:31:29;;;;;;;2.97;2.00;;;;;;;23.78;52.52;100761.41;5073908;28;20116;-64
2022/10/07 13:33:57;;;;;;;3.78;2.13;;;;;;;23.33;54.56;100756.00;5074179;28;20032;-64
2022/10/07 13:36:24;;;;;;;3.97;2.05;;;;;;;23.23;55.08;100758.56;5074074;28;20120;-65
2022/10/07 13:39:14;;;;;;;3.05;2.05;;;;;;;23.34;55.81;100754.09;5074243;28;20037;-65
2022/10/07 13:41:43;;;;;;;3.63;2.35;;;;;;;22.77;56.54;100748.69;5066303;28;20527;-63
2022/10/07 13:44:13;;;;;;;3.90;2.17;;;;;;;22.91;56.47;100748.19;5074053;28;20059;-63
2022/10/07 13:46:41;;;;;;;3.08;2.00;;;;;;;22.94;57.35;100749.56;5073913;28;20473;-64
2022/10/07 13:49:20;;;;;;;4.25;2.38;;;;;;;22.82;58.80;100732.47;5073866;28;20091;-63
2022/10/07 13:51:47;;;;;;;2.13;1.73;;;;;;;22.89;58.34;100741.34;5073656;28;20029;-61
2022/10/07 13:54:23;;;;;;;2.63;1.83;;;;;;;22.51;58.82;100736.50;5073241;28;20056;-62
2022/10/07 13:56:49;;;;;;;2.25;1.90;;;;;;;22.65;60.18;100733.25;5072506;28;20028;-61
2022/10/07 13:59:17;;;;;;;4.40;1.90;;;;;;;22.28;61.49;100729.22;5073615;28;20044;-63
2022/10/07 14:01:54;;;;;;;4.70;2.10;;;;;;;22.41;60.26;100735.19;5073354;28;20041;-64
2022/10/07 14:04:27;;;;;;;3.33;2.00;;;;;;;22.14;58.61;100728.66;5073726;28;20096;-64
2022/10/07 14:07:15;;;;;;;2.80;2.03;;;;;;;22.00;61.42;100728.03;5073651;28;20150;-64
2022/10/07 14:09:47;;;;;;;3.63;2.20;;;;;;;21.96;62.64;100726.84;5073684;28;20044;-65
2022/10/07 14:12:28;;;;;;;2.65;1.83;;;;;;;21.83;63.95;100722.50;5073130;28;20121;-63
2022/10/07 14:15:01;;;;;;;4.30;2.10;;;;;;;21.59;64.14;100718.13;5073552;28;20052;-64
2022/10/07 14:17:27;;;;;;;2.75;2.05;;;;;;;21.56;62.56;100708.56;5073362;28;20051;-64
2022/10/07 14:20:00;;;;;;;4.20;2.38;;;;;;;21.42;62.76;100715.28;5073332;28;20032;-66
2022/10/07 14:22:38;;;;;;;2.70;1.85;;;;;;;21.46;64.20;100707.53;5073234;28;20043;-65
2022/10/07 14:25:05;;;;;;;3.65;2.05;;;;;;;21.42;64.84;100703.63;5073295;28;20079;-65
2022/10/07 14:27:56;;;;;;;4.03;2.30;;;;;;;21.41;62.45;100697.38;5073199;28;20056;-65
2022/10/07 14:35:17;;;;;;;6.47;2.67;;;;;;;21.40;63.55;100699.25;5072937;28;20113;-65
2022/10/07 14:36:20;;;;;;;5.10;1.88;;;;;;;21.32;64.96;100693.34;5072960;28;20075;-65
2022/10/07 14:38:48;;;;;;;3.13;2.00;;;;;;;21.14;67.99;100696.94;5072947;28;20122;-66
2022/10/07 14:41:16;;;;;;;2.30;1.80;;;;;;;20.93;66.33;100684.75;5072628;28;20047;-64
2022/10/07 14:43:44;;;;;;;3.22;2.00;;;;;;;20.99;65.90;100672.16;5072899;28;20036;-65
2022/10/07 14:46:14;;;;;;;;;;;;;;;20.91;68.07;100669.78;5073250;28;20071;-65
2022/10/07 14:48:40;;;;;;;2.58;2.10;;;;;;;20.86;65.86;100660.50;5073110;28;19912;-65
2022/10/07 14:51:05;;;;;;;4.40;2.53;;;;;;;20.81;67.37;100671.19;5072364;28;20425;-64
2022/10/07 14:53:32;;;;;;;2.33;2.00;;;;;;;20.72;65.44;100664.41;5072872;28;20036;-66
2022/10/07 14:55:57;;;;;;;3.60;2.20;;;;;;;20.73;69.27;100662.53;5072921;28;20036;-56
2022/10/07 14:58:23;;;;;;;5.90;2.45;;;;;;;20.68;69.08;100660.53;5073642;28;20113;-57
2022/10/07 15:00:50;;;;;;;6.10;2.47;;;;;;;20.55;69.20;100650.72;5074372;28;20127;-55
2022/10/07 15:03:16;;;;;;;8.07;2.35;;;;;;;20.52;68.55;100656.56;5074071;28;20045;-52
2022/10/07 15:05:41;;;;;;;3.53;2.00;;;;;;;20.51;67.91;100651.41;5072239;28;20037;-53
2022/10/07 15:08:10;;;;;;;3.63;2.33;;;;;;;20.45;70.28;100639.59;5072954;28;20118;-67
2022/10/07 15:10:37;;;;;;;3.50;2.40;;;;;;;20.40;70.81;100627.78;5072620;28;20040;-65
2022/10/07 15:13:04;;;;;;;3.47;2.47;;;;;;;20.44;70.26;100637.09;5072921;28;20035;-67
2022/10/07 15:15:31;;;;;;;3.42;2.15;;;;;;;20.42;69.99;100639.22;5072767;28;20040;-68
2022/10/07 15:17:56;;;;;;;4.35;2.55;;;;;;;20.43;70.97;100643.56;5073064;28;20040;-67
2022/10/07 15:20:21;;;;;;;3.42;2.33;;;;;;;20.42;71.37;100637.34;5071984;28;20082;-66
2022/10/07 15:22:49;;;;;;;4.38;2.30;;;;;;;20.46;70.53;100637.72;5072438;28;20033;-67
2022/10/07 15:25:15;;;;;;;;;;;;;;;20.44;71.32;100637.09;5073368;28;20097;-67
2022/10/07 15:27:40;;;;;;;2.75;2.00;;;;;;;20.46;72.10;100625.03;5072501;28;20377;-67
2022/10/07 15:30:06;;;;;;;2.80;2.28;;;;;;;20.39;71.26;100618.84;5072232;28;20077;-67
2022/10/07 15:32:33;;;;;;;2.60;1.90;;;;;;;20.35;70.79;100617.66;5072759;28;20342;-67
2022/10/07 15:34:58;;;;;;;3.67;2.60;;;;;;;20.27;69.99;100612.56;5072656;28;20481;-67
2022/10/07 15:37:26;;;;;;;4.65;2.38;;;;;;;20.03;71.16;100603.50;5072841;28;20139;-66
2022/10/07 15:39:52;;;;;;;8.27;2.30;;;;;;;20.04;71.55;100605.16;5072601;28;20134;-67
2022/10/07 15:42:18;;;;;;;4.22;2.30;;;;;;;20.03;71.12;100608.91;5073026;28;20040;-67
2022/10/07 15:44:47;;;;;;;4.85;2.35;;;;;;;19.91;71.31;100597.22;5072894;28;20041;-66
2022/10/07 15:47:13;;;;;;;5.13;2.53;;;;;;;19.87;71.69;100596.81;5073064;28;20416;-67
2022/10/07 15:49:38;;;;;;;3.13;2.13;;;;;;;19.87;71.57;100598.69;5072637;28;20056;-67
2022/10/07 15:52:05;;;;;;;2.83;1.88;;;;;;;19.90;73.20;100601.78;5072462;28;20033;-66
2022/10/07 15:54:31;;;;;;;4.47;2.55;;;;;;;19.87;73.46;100606.81;5072841;28;20193;-67
2022/10/07 15:56:57;;;;;;;2.97;2.00;;;;;;;19.81;73.52;100596.91;5072628;28;20051;-67
2022/10/07 15:59:22;;;;;;;3.58;2.15;;;;;;;19.83;74.54;100594.81;5072104;28;20037;-66
2022/10/07 16:01:50;;;;;;;2.92;2.22;;;;;;;19.88;73.57;100594.94;5071665;28;20482;-67
2022/10/07 16:04:16;;;;;;;3.50;2.28;;;;;;;19.82;73.96;100591.25;5070673;28;20482;-67
2022/10/07 16:06:48;;;;;;;4.88;2.17;;;;;;;19.74;74.30;100599.69;5072062;28;20043;-68
2022/10/07 16:09:14;;;;;;;3.65;2.40;;;;;;;19.71;74.76;100592.84;5073089;28;20047;-67
2022/10/07 16:11:39;;;;;;;6.35;2.78;;;;;;;19.66;74.74;100592.69;5073482;28;20033;-66
2022/10/07 16:14:04;;;;;;;3.90;2.60;;;;;;;19.63;74.70;100586.94;5072078;28;20067;-66
2022/10/07 16:16:31;;;;;;;2.75;2.00;;;;;;;19.46;75.07;100584.75;5072041;28;20096;-67
2022/10/07 16:18:57;;;;;;;3.42;2.08;;;;;;;19.34;76.95;100589.25;5071613;28;20111;-67
2022/10/07 16:21:28;;;;;;;3.13;2.40;;;;;;;19.21;78.61;100589.38;5071081;28;20037;-66
2022/10/07 16:24:00;;;;;;;2.78;2.25;;;;;;;19.04;81.09;100583.72;5071914;28;20068;-66